Time;durP1;ratioP1;P1;durP2;ratioP2;P2;SDS_P1;SDS_P2;PMS_P1;PMS_P2;Temp;Humidity;BMP_temperature;BMP_pressure;BME280_temperature;BME280_humidity;BME280_pressure;Samples;Min_cycle;Max_cycle;Signal;HPM_P1;HPM_P2
2021/04/28 00:00:17;;;;;;;;;;;13.80;47.00;;;;;;2076043;28;1878;-57
2021/04/28 00:01:36;;;;;;;;;;;13.80;47.00;;;;;;2056200;28;770;-57
2021/04/28 00:02:55;;;;;;;;;;;13.80;46.40;;;;;;2066337;28;1931;-57
2021/04/28 00:04:14;;;;;;;;;;;13.80;46.50;;;;;;2072536;28;733;-56
2021/04/28 00:05:33;;;;;;;;;;;13.80;46.50;;;;;;2073341;28;1730;-59
2021/04/28 00:06:53;;;;;;;;;;;13.80;46.50;;;;;;2073107;28;764;-57
2021/04/28 00:08:12;;;;;;;;;;;13.80;46.50;;;;;;2066723;28;1533;-57
2021/04/28 00:09:31;;;;;;;;;;;13.80;46.50;;;;;;2076887;28;774;-58
2021/04/28 00:10:50;;;;;;;;;;;13.80;46.50;;;;;;2072706;28;733;-58
2021/04/28 00:12:10;;;;;;;;;;;13.80;46.60;;;;;;2072935;28;1851;-59
2021/04/28 00:13:29;;;;;;;;;;;13.80;46.60;;;;;;2074056;28;1030;-59
2021/04/28 00:14:48;;;;;;;;;;;13.80;46.60;;;;;;2082148;28;1170;-55
2021/04/28 00:16:07;;;;;;;;;;;13.80;46.60;;;;;;2072444;28;722;-57
2021/04/28 00:17:27;;;;;;;;;;;13.80;47.10;;;;;;2077725;28;770;-56
2021/04/28 00:18:47;;;;;;;;;;;13.70;46.50;;;;;;2081210;28;734;-57
2021/04/28 00:20:10;;;;;;;;;;;13.80;46.70;;;;;;2078320;28;1917;-57
2021/04/28 00:21:29;;;;;;;;;;;13.70;46.60;;;;;;2064559;28;770;-57
2021/04/28 00:22:48;;;;;;;;;;;13.80;46.70;;;;;;2064169;28;1914;-55
2021/04/28 00:24:09;;;;;;;;;;;13.70;46.70;;;;;;2069458;28;739;-56
2021/04/28 00:25:28;;;;;;;;;;;13.80;46.80;;;;;;2074906;28;973;-57
2021/04/28 00:26:47;;;;;;;;;;;13.70;46.70;;;;;;2079835;28;1059;-56
2021/04/28 00:28:06;;;;;;;;;;;13.70;46.70;;;;;;2072189;28;761;-56
2021/04/28 00:29:25;;;;;;;;;;;13.70;46.70;;;;;;2060726;28;775;-56
2021/04/28 00:30:45;;;;;;;;;;;13.70;47.30;;;;;;2069774;28;1272;-56
2021/04/28 00:32:04;;;;;;;;;;;13.70;46.80;;;;;;2072346;28;1396;-55
2021/04/28 00:33:23;;;;;;;;;;;13.70;46.90;;;;;;2072899;28;1522;-57
2021/04/28 00:34:43;;;;;;;;;;;13.70;46.90;;;;;;2073057;28;1580;-57
2021/04/28 00:36:02;;;;;;;;;;;13.70;46.90;;;;;;2072380;28;731;-57
2021/04/28 00:37:21;;;;;;;;;;;13.70;46.90;;;;;;2072666;28;824;-59
2021/04/28 00:38:40;;;;;;;;;;;13.70;47.00;;;;;;2065673;28;755;-55
2021/04/28 00:40:00;;;;;;;;;;;13.70;47.00;;;;;;2071186;28;1601;-57
2021/04/28 00:41:19;;;;;;;;;;;13.70;47.00;;;;;;2074687;28;1350;-59
2021/04/28 00:42:40;;;;;;;;;;;13.70;47.00;;;;;;2074623;28;1962;-59
2021/04/28 00:43:59;;;;;;;;;;;13.70;47.00;;;;;;2072866;28;1745;-56
2021/04/28 00:45:19;;;;;;;;;;;13.70;47.10;;;;;;2054702;28;817;-57
2021/04/28 00:46:38;;;;;;;;;;;13.70;47.60;;;;;;2067755;28;773;-56
2021/04/28 00:47:57;;;;;;;;;;;13.70;47.20;;;;;;2065761;28;742;-57
2021/04/28 00:49:16;;;;;;;;;;;13.70;47.10;;;;;;2065901;28;939;-56
2021/04/28 00:50:37;;;;;;;;;;;13.70;47.20;;;;;;2066336;28;1890;-57
2021/04/28 00:51:57;;;;;;;;;;;13.70;47.20;;;;;;2063120;28;735;-58
2021/04/28 00:53:17;;;;;;;;;;;13.70;47.20;;;;;;2070728;28;752;-59
2021/04/28 00:54:36;;;;;;;;;;;13.70;47.20;;;;;;2066981;28;741;-57
2021/04/28 00:55:56;;;;;;;;;;;13.70;47.20;;;;;;2077226;28;961;-58
2021/04/28 00:57:15;;;;;;;;;;;13.70;47.20;;;;;;2073531;28;987;-58
2021/04/28 00:58:34;;;;;;;;;;;13.60;47.20;;;;;;2082094;28;777;-57
2021/04/28 00:59:53;;;;;;;;;;;13.60;47.20;;;;;;2074400;28;1424;-57
2021/04/28 01:01:13;;;;;;;;;;;13.60;47.80;;;;;;2071669;28;743;-61
2021/04/28 01:02:33;;;;;;;;;;;13.60;47.20;;;;;;2073963;28;1972;-58
2021/04/28 01:03:52;;;;;;;;;;;13.60;47.20;;;;;;2065843;28;746;-59
2021/04/28 01:05:13;;;;;;;;;;;13.60;47.30;;;;;;2077447;28;1635;-58
2021/04/28 01:06:32;;;;;;;;;;;13.60;47.30;;;;;;2073525;28;1613;-58
2021/04/28 01:07:52;;;;;;;;;;;13.60;47.30;;;;;;2078950;28;817;-62
2021/04/28 01:09:12;;;;;;;;;;;13.60;47.30;;;;;;2082566;28;751;-58
2021/04/28 01:10:35;;;;;;;;;;;13.60;47.30;;;;;;2073737;28;720;-59
2021/04/28 01:11:55;;;;;;;;;;;13.60;47.30;;;;;;2079787;28;1578;-59
2021/04/28 01:13:14;;;;;;;;;;;13.60;47.30;;;;;;2065822;28;974;-59
2021/04/28 01:14:35;;;;;;;;;;;13.60;47.30;;;;;;2071080;28;1022;-57
2021/04/28 01:15:56;;;;;;;;;;;13.60;47.30;;;;;;2065709;28;753;-59
2021/04/28 01:17:15;;;;;;;;;;;13.60;47.30;;;;;;2071135;28;978;-57
2021/04/28 01:18:34;;;;;;;;;;;13.60;47.40;;;;;;2074362;28;947;-58
2021/04/28 01:19:55;;;;;;;;;;;13.60;47.40;;;;;;2074233;28;1867;-57
2021/04/28 01:21:14;;;;;;;;;;;13.60;47.90;;;;;;2065732;28;777;-58
2021/04/28 01:22:40;;;;;;;;;;;13.60;48.00;;;;;;2065495;28;1958;-56
2021/04/28 01:23:59;;;;;;;;;;;13.60;48.00;;;;;;2063254;28;770;-59
2021/04/28 01:25:19;;;;;;;;;;;13.60;47.50;;;;;;2074305;28;1004;-58
2021/04/28 01:26:38;;;;;;;;;;;13.60;47.50;;;;;;2082388;28;1004;-58
2021/04/28 01:27:59;;;;;;;;;;;13.60;47.50;;;;;;2071200;28;895;-58
2021/04/28 01:29:19;;;;;;;;;;;13.60;47.50;;;;;;2079154;28;1014;-59
2021/04/28 01:30:49;;;;;;;;;;;13.60;47.50;;;;;;2057603;28;777;-57
2021/04/28 01:32:10;;;;;;;;;;;13.60;48.10;;;;;;2071253;28;1459;-56
2021/04/28 01:33:32;;;;;;;;;;;13.50;47.60;;;;;;2057581;28;787;-56
2021/04/28 01:34:51;;;;;;;;;;;13.60;47.60;;;;;;2076493;28;1449;-57
2021/04/28 01:36:13;;;;;;;;;;;13.50;47.50;;;;;;2067582;28;1288;-56
2021/04/28 01:37:33;;;;;;;;;;;13.50;47.50;;;;;;2068691;28;1467;-57
2021/04/28 01:38:55;;;;;;;;;;;13.50;47.60;;;;;;2065582;28;1245;-55
2021/04/28 01:40:17;;;;;;;;;;;13.50;47.60;;;;;;2075921;28;1439;-57
2021/04/28 01:41:40;;;;;;;;;;;13.50;47.60;;;;;;2073813;28;1121;-58
2021/04/28 01:43:00;;;;;;;;;;;13.50;47.60;;;;;;2069633;28;1898;-57
2021/04/28 01:44:20;;;;;;;;;;;13.50;47.60;;;;;;2077398;28;1239;-59
2021/04/28 01:45:40;;;;;;;;;;;13.50;47.60;;;;;;2077263;28;1246;-58
2021/04/28 01:47:00;;;;;;;;;;;13.50;47.60;;;;;;2076164;28;1203;-58
2021/04/28 01:48:19;;;;;;;;;;;13.50;47.60;;;;;;2069305;28;1148;-57
2021/04/28 01:49:38;;;;;;;;;;;13.50;47.60;;;;;;2074835;28;1202;-57
2021/04/28 01:50:58;;;;;;;;;;;13.50;48.20;;;;;;2076974;28;1092;-59
2021/04/28 01:52:17;;;;;;;;;;;13.50;47.60;;;;;;2076542;28;1499;-59
2021/04/28 01:53:37;;;;;;;;;;;13.50;47.60;;;;;;2087462;28;1176;-59
2021/04/28 01:54:56;;;;;;;;;;;13.50;47.60;;;;;;2075049;28;1354;-56
2021/04/28 01:56:17;;;;;;;;;;;13.50;47.70;;;;;;2077131;28;1282;-56
2021/04/28 01:57:36;;;;;;;;;;;13.50;47.70;;;;;;2074505;28;1201;-58
2021/04/28 01:59:08;;;;;;;;;;;13.50;47.70;;;;;;2064278;28;1299;-57
2021/04/28 02:00:44;;;;;;;;;;;13.50;47.70;;;;;;2064497;28;1386;-58
2021/04/28 02:02:04;;;;;;;;;;;13.40;47.60;;;;;;2061479;28;1144;-56
2021/04/28 02:03:26;;;;;;;;;;;13.50;47.80;;;;;;2060603;28;1161;-55
2021/04/28 02:04:47;;;;;;;;;;;13.40;48.30;;;;;;2062676;28;1187;-57
2021/04/28 02:06:09;;;;;;;;;;;13.40;47.80;;;;;;2067920;28;1143;-55
2021/04/28 02:07:28;;;;;;;;;;;13.50;47.90;;;;;;2071291;28;1381;-57
2021/04/28 02:08:47;;;;;;;;;;;13.40;47.80;;;;;;2076402;28;1197;-55
2021/04/28 02:10:07;;;;;;;;;;;13.40;47.80;;;;;;2069390;28;1414;-57
2021/04/28 02:11:28;;;;;;;;;;;13.40;47.80;;;;;;2071502;28;1059;-59
2021/04/28 02:12:48;;;;;;;;;;;13.40;47.80;;;;;;2065544;28;1458;-58
2021/04/28 02:14:14;;;;;;;;;;;13.50;48.40;;;;;;2083616;28;1169;-56
2021/04/28 02:15:53;;;;;;;;;;;13.40;47.90;;;;;;2078411;28;1422;-56
2021/04/28 02:17:13;;;;;;;;;;;13.40;47.90;;;;;;2065774;28;1468;-57
2021/04/28 02:18:35;;;;;;;;;;;13.40;47.90;;;;;;2069543;28;1145;-56
2021/04/28 02:19:54;;;;;;;;;;;13.40;47.90;;;;;;2080297;28;1137;-57
2021/04/28 02:21:13;;;;;;;;;;;13.40;47.90;;;;;;2074293;28;1151;-58
2021/04/28 02:23:05;;;;;;;;;;;13.40;47.90;;;;;;2073337;28;1945;-57
2021/04/28 02:24:25;;;;;;;;;;;13.40;47.90;;;;;;2066266;28;1333;-60
2021/04/28 02:25:44;;;;;;;;;;;13.40;47.90;;;;;;2076970;28;1175;-59
2021/04/28 02:27:06;;;;;;;;;;;13.40;48.00;;;;;;2080843;28;1570;-59
2021/04/28 02:28:28;;;;;;;;;;;13.40;48.00;;;;;;2071202;28;1211;-59
2021/04/28 02:29:55;;;;;;;;;;;13.40;47.90;;;;;;2065756;28;1317;-59
2021/04/28 02:31:15;;;;;;;;;;;13.40;47.90;;;;;;2069229;28;1120;-56
2021/04/28 02:32:37;;;;;;;;;;;13.40;48.00;;;;;;2071155;28;1423;-58
2021/04/28 02:34:22;;;;;;;;;;;13.30;47.90;;;;;;2088822;28;1288;-58
2021/04/28 02:36:00;;;;;;;;;;;13.40;48.00;;;;;;2082945;28;1158;-59
2021/04/28 02:37:32;;;;;;;;;;;13.40;48.00;;;;;;2075632;28;1192;-57
2021/04/28 02:39:20;;;;;;;;;;;13.30;48.00;;;;;;2073731;28;1406;-57
2021/04/28 02:40:39;;;;;;;;;;;13.30;48.00;;;;;;2083157;28;1386;-57
2021/04/28 02:41:59;;;;;;;;;;;13.30;48.10;;;;;;2076623;28;985;-56
2021/04/28 02:43:19;;;;;;;;;;;13.40;48.70;;;;;;2065901;28;1193;-59
2021/04/28 02:44:43;;;;;;;;;;;13.40;48.20;;;;;;2083801;28;1218;-58
2021/04/28 02:46:04;;;;;;;;;;;13.40;48.10;;;;;;2077077;28;1239;-58
2021/04/28 02:47:27;;;;;;;;;;;13.40;48.20;;;;;;2061409;28;1280;-56
2021/04/28 02:48:47;;;;;;;;;;;13.30;48.60;;;;;;2070442;28;1018;-56
2021/04/28 02:50:32;;;;;;;;;;;13.40;48.20;;;;;;2083408;28;1484;-59
2021/04/28 02:51:56;;;;;;;;;;;13.30;48.10;;;;;;2065198;28;1361;-56
2021/04/28 02:53:33;;;;;;;;;;;13.30;48.20;;;;;;2071176;28;988;-59
2021/04/28 02:54:53;;;;;;;;;;;13.30;48.20;;;;;;2079890;28;1084;-59
2021/04/28 02:56:15;;;;;;;;;;;13.30;48.20;;;;;;2067272;28;1240;-59
2021/04/28 02:57:34;;;;;;;;;;;13.30;48.10;;;;;;2063545;28;1178;-59
2021/04/28 02:58:55;;;;;;;;;;;13.30;48.70;;;;;;2065796;28;1164;-59
2021/04/28 03:00:15;;;;;;;;;;;13.30;48.70;;;;;;2070728;28;1113;-58
2021/04/28 03:01:36;;;;;;;;;;;13.40;48.20;;;;;;2072592;28;1190;-57
2021/04/28 03:02:57;;;;;;;;;;;13.40;48.10;;;;;;2066800;28;1968;-57
2021/04/28 03:04:18;;;;;;;;;;;13.40;48.10;;;;;;2067778;28;1240;-58
2021/04/28 03:06:13;;;;;;;;;;;13.40;48.00;;;;;;2079357;28;1286;-57
2021/04/28 03:07:51;;;;;;;;;;;13.40;48.10;;;;;;2075657;28;1255;-59
2021/04/28 03:09:12;;;;;;;;;;;13.40;48.10;;;;;;2077354;28;1099;-59
2021/04/28 03:10:32;;;;;;;;;;;13.30;48.10;;;;;;2072065;28;1324;-59
2021/04/28 03:11:51;;;;;;;;;;;13.30;48.20;;;;;;2064584;28;1342;-57
2021/04/28 03:13:14;;;;;;;;;;;13.30;48.20;;;;;;2074930;28;1291;-56
2021/04/28 03:14:35;;;;;;;;;;;13.30;48.30;;;;;;2072737;28;1266;-58
2021/04/28 03:15:54;;;;;;;;;;;13.30;48.30;;;;;;2059637;28;1242;-57
2021/04/28 03:17:13;;;;;;;;;;;13.30;48.30;;;;;;2079497;28;1211;-57
2021/04/28 03:18:32;;;;;;;;;;;13.30;48.40;;;;;;2082608;28;1235;-57
2021/04/28 03:19:54;;;;;;;;;;;13.30;48.50;;;;;;2066160;28;1146;-58
2021/04/28 03:21:14;;;;;;;;;;;13.30;48.50;;;;;;2069169;28;1447;-59
2021/04/28 03:22:35;;;;;;;;;;;13.30;48.50;;;;;;2066323;28;2041;-58
2021/04/28 03:23:54;;;;;;;;;;;13.30;48.60;;;;;;2076466;28;1003;-55
2021/04/28 03:25:14;;;;;;;;;;;13.30;48.50;;;;;;2066717;28;1365;-56
2021/04/28 03:26:37;;;;;;;;;;;13.30;48.50;;;;;;2069774;28;1222;-55
2021/04/28 03:27:57;;;;;;;;;;;13.20;48.40;;;;;;2069617;28;1053;-56
2021/04/28 03:29:17;;;;;;;;;;;13.20;48.40;;;;;;2068853;28;1232;-59
2021/04/28 03:30:37;;;;;;;;;;;13.20;48.50;;;;;;2065943;28;1526;-55
2021/04/28 03:31:57;;;;;;;;;;;13.20;48.50;;;;;;2079652;28;1060;-56
2021/04/28 03:33:16;;;;;;;;;;;13.20;48.50;;;;;;2075472;28;1179;-56
2021/04/28 03:34:53;;;;;;;;;;;13.20;48.50;;;;;;2077309;28;1321;-55
2021/04/28 03:36:14;;;;;;;;;;;13.20;48.50;;;;;;2073292;28;1055;-54
2021/04/28 03:37:54;;;;;;;;;;;13.20;48.50;;;;;;2083271;28;1256;-57
2021/04/28 03:39:14;;;;;;;;;;;13.20;48.50;;;;;;2072849;28;1686;-58
2021/04/28 03:40:33;;;;;;;;;;;13.20;48.50;;;;;;2067423;28;1284;-57
2021/04/28 03:41:53;;;;;;;;;;;13.20;49.00;;;;;;2078546;28;1248;-56
2021/04/28 03:43:12;;;;;;;;;;;13.20;48.50;;;;;;2075997;28;1445;-54
2021/04/28 03:44:33;;;;;;;;;;;13.20;48.50;;;;;;2076632;28;1204;-56
2021/04/28 03:45:52;;;;;;;;;;;13.20;48.50;;;;;;2074394;28;911;-55
2021/04/28 03:47:20;;;;;;;;;;;13.20;48.50;;;;;;2067439;28;1128;-57
2021/04/28 03:48:41;;;;;;;;;;;13.20;48.50;;;;;;2079651;28;1254;-58
2021/04/28 03:50:01;;;;;;;;;;;13.20;48.50;;;;;;2074866;28;1323;-56
2021/04/28 03:51:24;;;;;;;;;;;13.20;48.50;;;;;;2069456;28;934;-57
2021/04/28 03:53:12;;;;;;;;;;;13.10;48.40;;;;;;2083930;28;1149;-57
2021/04/28 03:54:37;;;;;;;;;;;13.20;48.70;;;;;;2089017;28;734;-56
2021/04/28 03:55:58;;;;;;;;;;;13.20;48.60;;;;;;2072130;28;1961;-57
2021/04/28 03:57:17;;;;;;;;;;;13.10;48.50;;;;;;2069684;28;746;-57
2021/04/28 03:58:36;;;;;;;;;;;13.10;48.50;;;;;;2064455;28;761;-58
2021/04/28 04:00:05;;;;;;;;;;;13.20;48.60;;;;;;2061809;28;1786;-58
2021/04/28 04:01:35;;;;;;;;;;;13.20;48.60;;;;;;2071816;28;706;-59
2021/04/28 04:02:57;;;;;;;;;;;13.10;48.60;;;;;;2072653;28;1914;-57
2021/04/28 04:04:36;;;;;;;;;;;13.10;49.10;;;;;;2063402;28;1914;-58
2021/04/28 04:06:14;;;;;;;;;;;13.10;48.60;;;;;;2081131;28;781;-58
2021/04/28 04:07:43;;;;;;;;;;;13.10;48.60;;;;;;2081056;28;774;-58
2021/04/28 04:09:15;;;;;;;;;;;13.10;48.60;;;;;;2073006;28;711;-59
2021/04/28 04:10:37;;;;;;;;;;;13.10;48.60;;;;;;2079315;28;1865;-58
2021/04/28 04:11:57;;;;;;;;;;;13.10;48.70;;;;;;2074233;28;993;-58
2021/04/28 04:13:21;;;;;;;;;;;13.10;48.70;;;;;;2079667;28;709;-58
2021/04/28 04:14:40;;;;;;;;;;;13.10;48.70;;;;;;2087852;28;714;-58
2021/04/28 04:16:00;;;;;;;;;;;13.10;48.70;;;;;;2082606;28;736;-57
2021/04/28 04:17:19;;;;;;;;;;;13.10;48.70;;;;;;2082649;28;896;-58
2021/04/28 04:18:42;;;;;;;;;;;13.10;48.70;;;;;;2088663;28;737;-58
2021/04/28 04:20:03;;;;;;;;;;;13.10;48.80;;;;;;2080236;28;1496;-57
2021/04/28 04:21:48;;;;;;;;;;;13.10;48.80;;;;;;2090973;28;1668;-58
2021/04/28 04:23:32;;;;;;;;;;;13.10;48.80;;;;;;2066397;28;760;-58
2021/04/28 04:25:08;;;;;;;;;;;13.10;48.80;;;;;;2075045;28;1888;-57
2021/04/28 04:26:28;;;;;;;;;;;13.10;48.90;;;;;;2074468;28;760;-56
2021/04/28 04:27:53;;;;;;;;;;;13.00;48.70;;;;;;2080115;28;2051;-58
2021/04/28 04:29:31;;;;;;;;;;;13.10;48.80;;;;;;2082378;28;947;-58
2021/04/28 04:31:11;;;;;;;;;;;13.10;49.40;;;;;;2058649;28;1283;-57
2021/04/28 04:33:02;;;;;;;;;;;13.00;48.80;;;;;;2049495;28;1392;-58
2021/04/28 04:34:41;;;;;;;;;;;13.00;48.80;;;;;;2075261;28;1720;-58
2021/04/28 04:36:19;;;;;;;;;;;13.00;48.80;;;;;;2074770;28;756;-56
2021/04/28 04:37:57;;;;;;;;;;;13.10;48.90;;;;;;2074749;28;713;-58
2021/04/28 04:39:35;;;;;;;;;;;13.00;48.80;;;;;;2076637;28;856;-57
2021/04/28 04:41:06;;;;;;;;;;;13.00;48.80;;;;;;2091346;28;914;-57
2021/04/28 04:42:44;;;;;;;;;;;13.00;48.90;;;;;;2078792;28;1906;-57
2021/04/28 04:44:22;;;;;;;;;;;13.00;48.90;;;;;;2082087;28;767;-57
2021/04/28 04:45:53;;;;;;;;;;;13.00;48.90;;;;;;2072072;28;729;-58
2021/04/28 04:47:12;;;;;;;;;;;13.00;48.90;;;;;;2074082;28;1301;-57
2021/04/28 04:48:31;;;;;;;;;;;13.00;48.90;;;;;;2065570;28;808;-56
2021/04/28 04:49:50;;;;;;;;;;;13.00;49.40;;;;;;2070008;28;1174;-57
2021/04/28 04:51:10;;;;;;;;;;;13.00;48.90;;;;;;2073782;28;781;-57
2021/04/28 04:52:29;;;;;;;;;;;13.00;48.90;;;;;;2065108;28;1471;-58
2021/04/28 04:53:48;;;;;;;;;;;13.00;48.90;;;;;;2071012;28;697;-58
2021/04/28 04:55:08;;;;;;;;;;;13.00;48.90;;;;;;2074098;28;695;-57
2021/04/28 04:56:27;;;;;;;;;;;13.00;48.90;;;;;;2073993;28;733;-57
2021/04/28 04:57:46;;;;;;;;;;;13.00;49.00;;;;;;2073956;28;1646;-57
2021/04/28 04:59:06;;;;;;;;;;;13.00;49.00;;;;;;2074912;28;762;-58
2021/04/28 05:00:26;;;;;;;;;;;13.00;48.90;;;;;;2077705;28;1418;-56
2021/04/28 05:01:46;;;;;;;;;;;13.00;49.00;;;;;;2075637;28;1374;-55
2021/04/28 05:03:05;;;;;;;;;;;13.00;49.00;;;;;;2074545;28;1906;-57
2021/04/28 05:04:24;;;;;;;;;;;13.00;49.00;;;;;;2074734;28;703;-56
2021/04/28 05:05:43;;;;;;;;;;;13.00;49.00;;;;;;2074744;28;719;-59
2021/04/28 05:07:02;;;;;;;;;;;13.00;49.00;;;;;;2074643;28;705;-56
2021/04/28 05:08:21;;;;;;;;;;;13.00;49.10;;;;;;2074350;28;1640;-57
2021/04/28 05:09:41;;;;;;;;;;;12.90;48.90;;;;;;2076629;28;908;-56
2021/04/28 05:11:00;;;;;;;;;;;13.00;49.10;;;;;;2089200;28;851;-57
2021/04/28 05:12:19;;;;;;;;;;;12.90;49.00;;;;;;2077935;28;1420;-57
2021/04/28 05:13:38;;;;;;;;;;;13.00;49.10;;;;;;2090846;28;762;-58
2021/04/28 05:14:57;;;;;;;;;;;12.90;48.90;;;;;;2090623;28;1850;-58
2021/04/28 05:16:17;;;;;;;;;;;12.90;49.00;;;;;;2065912;28;778;-57
2021/04/28 05:17:36;;;;;;;;;;;12.90;49.00;;;;;;2071127;28;1006;-58
2021/04/28 05:18:55;;;;;;;;;;;12.90;48.90;;;;;;2074601;28;799;-58
2021/04/28 05:20:15;;;;;;;;;;;12.90;49.00;;;;;;2076687;28;1622;-57
2021/04/28 05:21:34;;;;;;;;;;;12.90;49.00;;;;;;2073766;28;752;-58
2021/04/28 05:22:56;;;;;;;;;;;12.90;49.10;;;;;;2073344;28;1981;-57
2021/04/28 05:24:34;;;;;;;;;;;12.90;49.10;;;;;;2072731;28;716;-56
2021/04/28 05:26:12;;;;;;;;;;;12.90;49.00;;;;;;2080467;28;1660;-58
2021/04/28 05:27:31;;;;;;;;;;;12.90;49.10;;;;;;2082548;28;878;-58
2021/04/28 05:28:50;;;;;;;;;;;12.90;49.10;;;;;;2082499;28;1037;-58
2021/04/28 05:30:09;;;;;;;;;;;12.90;49.10;;;;;;2068306;28;1619;-58
2021/04/28 05:31:28;;;;;;;;;;;12.90;49.10;;;;;;2062773;28;714;-58
2021/04/28 05:32:48;;;;;;;;;;;12.90;49.10;;;;;;2070186;28;1470;-57
2021/04/28 05:34:07;;;;;;;;;;;12.90;49.10;;;;;;2080810;28;758;-56
2021/04/28 05:35:26;;;;;;;;;;;12.90;49.10;;;;;;2073869;28;763;-57
2021/04/28 05:36:45;;;;;;;;;;;12.90;49.10;;;;;;2070774;28;753;-58
2021/04/28 05:38:04;;;;;;;;;;;12.90;49.10;;;;;;2077808;28;1610;-57
2021/04/28 05:39:23;;;;;;;;;;;12.90;49.20;;;;;;2075217;28;1458;-57
2021/04/28 05:40:43;;;;;;;;;;;12.90;49.20;;;;;;2087672;28;940;-58
2021/04/28 05:42:02;;;;;;;;;;;12.90;49.20;;;;;;2083037;28;1129;-58
2021/04/28 05:43:21;;;;;;;;;;;12.90;49.20;;;;;;2073827;28;732;-58
2021/04/28 05:44:41;;;;;;;;;;;12.90;49.10;;;;;;2078752;28;755;-58
2021/04/28 05:46:02;;;;;;;;;;;12.90;49.10;;;;;;2078505;28;753;-58
2021/04/28 05:47:22;;;;;;;;;;;12.90;49.10;;;;;;2086698;28;1421;-58
2021/04/28 05:48:41;;;;;;;;;;;12.90;49.50;;;;;;2077358;28;1345;-58
2021/04/28 05:50:00;;;;;;;;;;;12.90;49.50;;;;;;2069191;28;1910;-55
2021/04/28 05:51:19;;;;;;;;;;;12.90;48.90;;;;;;2079339;28;746;-56
2021/04/28 05:52:39;;;;;;;;;;;13.00;49.00;;;;;;2082513;28;1855;-57
2021/04/28 05:53:58;;;;;;;;;;;13.00;49.10;;;;;;2079185;28;1298;-56
2021/04/28 05:55:18;;;;;;;;;;;13.00;49.00;;;;;;2079534;28;1605;-58
2021/04/28 05:56:40;;;;;;;;;;;13.00;49.00;;;;;;2077097;28;1605;-57
2021/04/28 05:57:59;;;;;;;;;;;12.90;48.90;;;;;;2057289;28;746;-58
2021/04/28 05:59:18;;;;;;;;;;;13.00;48.90;;;;;;2054245;28;730;-58
2021/04/28 06:00:38;;;;;;;;;;;13.00;48.90;;;;;;2067779;28;796;-57
2021/04/28 06:01:57;;;;;;;;;;;13.00;48.90;;;;;;2065563;28;755;-58
2021/04/28 06:03:16;;;;;;;;;;;13.00;49.40;;;;;;2064141;28;1518;-55
2021/04/28 06:04:36;;;;;;;;;;;13.00;48.90;;;;;;2078820;28;744;-58
2021/04/28 06:05:56;;;;;;;;;;;13.00;48.90;;;;;;2082419;28;717;-56
2021/04/28 06:07:15;;;;;;;;;;;13.00;48.90;;;;;;2082365;28;742;-57
2021/04/28 06:08:34;;;;;;;;;;;13.00;48.90;;;;;;2073771;28;748;-56
2021/04/28 06:09:53;;;;;;;;;;;13.00;48.90;;;;;;2078153;28;1008;-58
2021/04/28 06:11:13;;;;;;;;;;;13.00;48.90;;;;;;2090577;28;866;-57
2021/04/28 06:12:32;;;;;;;;;;;13.10;49.00;;;;;;2074674;28;1421;-56
2021/04/28 06:13:51;;;;;;;;;;;13.10;49.00;;;;;;2074424;28;1594;-59
2021/04/28 06:15:11;;;;;;;;;;;13.10;48.90;;;;;;2082347;28;777;-58
2021/04/28 06:16:30;;;;;;;;;;;13.20;49.00;;;;;;2081578;28;1887;-56
2021/04/28 06:17:49;;;;;;;;;;;13.20;49.00;;;;;;2073489;28;741;-56
2021/04/28 06:19:10;;;;;;;;;;;13.20;49.50;;;;;;2074066;28;765;-56
2021/04/28 06:20:29;;;;;;;;;;;13.30;49.00;;;;;;2074210;28;1087;-56
2021/04/28 06:21:48;;;;;;;;;;;13.30;48.90;;;;;;2065590;28;932;-56
2021/04/28 06:23:07;;;;;;;;;;;13.40;48.80;;;;;;2072285;28;2312;-57
2021/04/28 06:24:27;;;;;;;;;;;13.50;48.80;;;;;;2078959;28;713;-57
2021/04/28 06:25:48;;;;;;;;;;;13.50;48.70;;;;;;2071966;28;1620;-58
2021/04/28 06:27:08;;;;;;;;;;;13.60;48.70;;;;;;2075157;28;1589;-57
2021/04/28 06:28:27;;;;;;;;;;;13.60;48.60;;;;;;2073580;28;727;-56
2021/04/28 06:29:46;;;;;;;;;;;13.60;48.50;;;;;;2077849;28;1254;-57
2021/04/28 06:31:05;;;;;;;;;;;13.70;48.50;;;;;;2082192;28;723;-57
2021/04/28 06:32:24;;;;;;;;;;;13.70;48.40;;;;;;2082195;28;1454;-57
2021/04/28 06:33:44;;;;;;;;;;;13.70;48.40;;;;;;2082131;28;759;-58
2021/04/28 06:35:03;;;;;;;;;;;13.70;48.80;;;;;;2082330;28;791;-58
2021/04/28 06:36:23;;;;;;;;;;;13.70;48.30;;;;;;2082100;28;708;-57
2021/04/28 06:37:42;;;;;;;;;;;13.70;48.30;;;;;;2074207;28;740;-57
2021/04/28 06:39:01;;;;;;;;;;;13.70;48.40;;;;;;2074059;28;723;-58
2021/04/28 06:40:22;;;;;;;;;;;13.80;48.50;;;;;;2079317;28;1562;-56
2021/04/28 06:41:45;;;;;;;;;;;13.80;48.40;;;;;;2083117;28;901;-56
2021/04/28 06:43:07;;;;;;;;;;;13.80;48.40;;;;;;2089384;28;1989;-58
2021/04/28 06:44:26;;;;;;;;;;;13.80;48.40;;;;;;2090315;28;708;-58
2021/04/28 06:45:45;;;;;;;;;;;13.80;48.40;;;;;;2090552;28;715;-57
2021/04/28 06:47:04;;;;;;;;;;;13.90;48.40;;;;;;2081572;28;731;-58
2021/04/28 06:48:24;;;;;;;;;;;13.90;48.40;;;;;;2086748;28;937;-56
2021/04/28 06:49:43;;;;;;;;;;;14.00;48.40;;;;;;2072973;28;806;-57
2021/04/28 06:51:03;;;;;;;;;;;14.00;48.30;;;;;;2083914;28;785;-58
2021/04/28 06:52:22;;;;;;;;;;;14.10;48.30;;;;;;2085592;28;1566;-57
2021/04/28 06:53:41;;;;;;;;;;;14.10;48.20;;;;;;2082137;28;729;-57
2021/04/28 06:55:01;;;;;;;;;;;14.20;48.20;;;;;;2076039;28;1677;-57
2021/04/28 06:56:20;;;;;;;;;;;14.20;48.10;;;;;;2081578;28;1195;-57
2021/04/28 06:57:39;;;;;;;;;;;14.30;48.10;;;;;;2082212;28;719;-57
2021/04/28 06:58:59;;;;;;;;;;;14.30;48.60;;;;;;2070125;28;1438;-58
2021/04/28 07:00:18;;;;;;;;;;;14.30;48.50;;;;;;2069872;28;741;-57
2021/04/28 07:01:37;;;;;;;;;;;14.40;48.00;;;;;;2073190;28;708;-57
2021/04/28 07:02:57;;;;;;;;;;;14.40;48.00;;;;;;2073387;28;1985;-57
2021/04/28 07:04:16;;;;;;;;;;;14.40;48.00;;;;;;2073706;28;737;-58
2021/04/28 07:05:35;;;;;;;;;;;14.50;48.00;;;;;;2074039;28;711;-57
2021/04/28 07:06:54;;;;;;;;;;;14.50;47.90;;;;;;2073515;28;771;-58
2021/04/28 07:08:14;;;;;;;;;;;14.50;47.90;;;;;;2079700;28;1638;-56
2021/04/28 07:09:33;;;;;;;;;;;14.50;47.90;;;;;;2075906;28;1612;-58
2021/04/28 07:10:52;;;;;;;;;;;14.60;47.90;;;;;;2073905;28;1354;-57
2021/04/28 07:12:12;;;;;;;;;;;14.60;47.90;;;;;;2070276;28;729;-58
2021/04/28 07:13:31;;;;;;;;;;;14.60;47.90;;;;;;2072916;28;732;-58
2021/04/28 07:14:50;;;;;;;;;;;14.60;47.90;;;;;;2064720;28;719;-57
2021/04/28 07:16:09;;;;;;;;;;;14.60;47.90;;;;;;2070207;28;699;-58
2021/04/28 07:17:29;;;;;;;;;;;14.60;48.50;;;;;;2072682;28;1000;-57
2021/04/28 07:18:48;;;;;;;;;;;14.60;47.90;;;;;;2073192;28;1634;-58
2021/04/28 07:20:07;;;;;;;;;;;14.60;48.00;;;;;;2072535;28;716;-58
2021/04/28 07:21:27;;;;;;;;;;;14.60;48.00;;;;;;2064637;28;1332;-58
2021/04/28 07:22:46;;;;;;;;;;;14.60;48.00;;;;;;2064783;28;1918;-57
2021/04/28 07:24:06;;;;;;;;;;;14.60;48.00;;;;;;2069929;28;715;-58
2021/04/28 07:25:25;;;;;;;;;;;14.60;48.10;;;;;;2073658;28;1493;-58
2021/04/28 07:26:44;;;;;;;;;;;14.60;48.10;;;;;;2073474;28;696;-58
2021/04/28 07:28:04;;;;;;;;;;;14.60;48.10;;;;;;2073570;28;751;-58
2021/04/28 07:29:23;;;;;;;;;;;14.60;48.10;;;;;;2074052;28;1579;-56
2021/04/28 07:30:42;;;;;;;;;;;14.60;48.20;;;;;;2073638;28;731;-58
2021/04/28 07:32:02;;;;;;;;;;;14.60;48.20;;;;;;2081105;28;1829;-58
2021/04/28 07:33:21;;;;;;;;;;;14.60;48.20;;;;;;2073182;28;716;-58
2021/04/28 07:34:40;;;;;;;;;;;14.60;48.20;;;;;;2073662;28;723;-58
2021/04/28 07:35:59;;;;;;;;;;;14.60;48.30;;;;;;2073718;28;1515;-58
2021/04/28 07:37:18;;;;;;;;;;;14.60;48.30;;;;;;2073510;28;718;-57
2021/04/28 07:38:38;;;;;;;;;;;14.60;48.40;;;;;;2073658;28;1649;-57
2021/04/28 07:39:57;;;;;;;;;;;14.60;48.40;;;;;;2086505;28;922;-58
2021/04/28 07:41:16;;;;;;;;;;;14.60;48.50;;;;;;2079735;28;877;-58
2021/04/28 07:42:35;;;;;;;;;;;14.60;48.50;;;;;;2078014;28;1906;-58
2021/04/28 07:43:55;;;;;;;;;;;14.60;48.50;;;;;;2081734;28;707;-58
2021/04/28 07:45:14;;;;;;;;;;;14.60;48.50;;;;;;2072962;28;747;-58
2021/04/28 07:46:35;;;;;;;;;;;14.60;48.50;;;;;;2071747;28;1562;-57
2021/04/28 07:47:54;;;;;;;;;;;14.50;48.50;;;;;;2074724;28;1381;-58
2021/04/28 07:49:13;;;;;;;;;;;14.50;48.60;;;;;;2076815;28;1887;-58
2021/04/28 07:50:32;;;;;;;;;;;14.50;48.50;;;;;;2073512;28;805;-57
2021/04/28 07:51:51;;;;;;;;;;;14.50;49.10;;;;;;2073235;28;741;-58
2021/04/28 07:53:11;;;;;;;;;;;14.50;48.70;;;;;;2072918;28;1504;-57
2021/04/28 07:54:30;;;;;;;;;;;14.50;48.70;;;;;;2072869;28;776;-57
2021/04/28 07:55:49;;;;;;;;;;;14.50;48.70;;;;;;2077776;28;723;-58
2021/04/28 07:57:08;;;;;;;;;;;14.50;48.80;;;;;;2072799;28;752;-58
2021/04/28 07:58:27;;;;;;;;;;;14.50;48.80;;;;;;2069476;28;825;-58
2021/04/28 07:59:47;;;;;;;;;;;14.50;48.80;;;;;;2073155;28;970;-58
2021/04/28 08:01:06;;;;;;;;;;;14.60;48.80;;;;;;2064927;28;724;-57
2021/04/28 08:02:25;;;;;;;;;;;14.60;48.80;;;;;;2064764;28;1965;-58
2021/04/28 08:03:45;;;;;;;;;;;14.60;48.80;;;;;;2070277;28;1903;-58
2021/04/28 08:05:04;;;;;;;;;;;14.60;48.80;;;;;;2073524;28;724;-58
2021/04/28 08:06:23;;;;;;;;;;;14.60;48.70;;;;;;2073251;28;670;-58